Time;durP1;ratioP1;P1;durP2;ratioP2;P2;SDS_P1;SDS_P2;PMS_P1;PMS_P2;Temp;Humidity;BMP_temperature;BMP_pressure;BME280_temperature;BME280_humidity;BME280_pressure;Samples;Min_cycle;Max_cycle;Signal;HPM_P1;HPM_P2
2021/12/15 00:09:13;;;;;;;59.20;44.10;;;23.20;58.10;;;;;;31688455;28;20040;-64
2021/12/15 00:24:15;;;;;;;8.63;6.32;;;22.50;50.70;;;;;;31632027;28;20048;-60
2021/12/15 00:39:21;;;;;;;5.93;3.17;;;21.90;47.10;;;;;;31611214;28;20052;-62
2021/12/15 00:54:23;;;;;;;3.22;1.60;;;22.70;48.60;;;;;;31590273;28;20096;-61
2021/12/15 01:09:31;;;;;;;4.40;1.42;;;23.30;50.00;;;;;;31555486;28;20052;-59
2021/12/15 01:24:33;;;;;;;2.22;0.80;;;23.30;51.90;;;;;;31561757;28;20056;-59
2021/12/15 01:39:36;;;;;;;0.40;0.40;;;23.20;52.70;;;;;;31628373;28;20044;-60
2021/12/15 01:54:40;;;;;;;0.30;0.30;;;23.20;52.90;;;;;;31585534;28;20133;-60
2021/12/15 02:24:55;;;;;;;0.20;0.20;;;22.90;53.90;;;;;;31613253;28;20112;-60
2021/12/15 02:40:00;;;;;;;0.20;0.20;;;22.80;54.30;;;;;;31705417;28;20048;-69
2021/12/15 02:55:04;;;;;;;0.10;0.10;;;22.70;54.70;;;;;;31593267;28;20041;-62
2021/12/15 03:25:31;;;;;;;0.10;0.10;;;23.30;55.10;;;;;;31670113;28;20108;-70
2021/12/15 03:40:40;;;;;;;0.10;0.10;;;23.10;55.10;;;;;;31615297;28;20047;-70
2021/12/15 03:55:43;;;;;;;0.20;0.20;;;23.00;55.30;;;;;;31577692;28;20123;-62
2021/12/15 04:10:46;;;;;;;0.10;0.10;;;22.90;55.40;;;;;;31664460;28;20045;-70
2021/12/15 04:25:52;;;;;;;0.10;0.10;;;22.80;55.60;;;;;;31557968;28;20076;-71
2021/12/15 04:40:56;;;;;;;0.10;0.10;;;22.80;55.80;;;;;;31657673;28;20060;-65
2021/12/15 04:55:58;;;;;;;0.10;0.10;;;22.90;56.80;;;;;;31600620;28;20045;-63
2021/12/15 05:11:01;;;;;;;0.10;0.10;;;23.20;56.40;;;;;;31585446;28;20540;-67
2021/12/15 05:26:04;;;;;;;0.28;0.20;;;23.20;56.40;;;;;;31649318;28;20163;-60
2021/12/15 05:41:06;;;;;;;0.20;0.20;;;23.00;56.40;;;;;;31571295;28;20096;-60
2021/12/15 05:56:08;;;;;;;0.20;0.20;;;22.90;56.50;;;;;;31670403;28;20068;-68
2021/12/15 06:11:10;;;;;;;10.98;3.35;;;22.80;56.70;;;;;;31587982;28;20045;-66
2021/12/15 06:26:12;;;;;;;6.07;1.90;;;22.70;56.40;;;;;;31593406;28;20532;-66
2021/12/15 06:41:16;;;;;;;24.27;13.90;;;23.00;57.10;;;;;;31608299;28;20124;-62
2021/12/15 07:11:39;;;;;;;30.55;24.95;;;22.90;53.00;;;;;;31583543;28;20059;-62
2021/12/15 07:26:41;;;;;;;94.55;75.20;;;22.90;53.50;;;;;;31614159;28;20070;-69
2021/12/15 07:41:55;;;;;;;57.92;45.45;;;22.60;52.50;;;;;;31614088;28;20129;-69
2021/12/15 07:56:58;;;;;;;38.78;31.67;;;22.90;53.00;;;;;;31592459;28;20120;-69
2021/12/15 08:12:00;;;;;;;32.45;26.48;;;23.20;52.80;;;;;;31657699;28;20075;-71
2021/12/15 08:27:04;;;;;;;26.33;22.60;;;23.20;53.10;;;;;;31575848;28;20061;-62
2021/12/15 08:42:08;;;;;;;28.08;20.83;;;23.00;53.40;;;;;;31626653;28;20052;-59
2021/12/15 08:57:10;;;;;;;22.75;18.60;;;22.90;53.10;;;;;;31591750;28;20045;-62
2021/12/15 09:12:12;;;;;;;12.95;10.75;;;22.70;53.50;;;;;;31593512;28;20123;-59
2021/12/15 09:27:14;;;;;;;25.77;20.95;;;22.90;53.40;;;;;;31607122;28;20052;-60
2021/12/15 09:42:20;;;;;;;7.68;6.10;;;23.10;52.40;;;;;;31568900;28;20041;-61
2021/12/15 09:57:34;;;;;;;4.80;3.70;;;23.20;52.50;;;;;;31616899;28;20060;-61
2021/12/15 10:28:05;;;;;;;13.73;10.30;;;22.90;53.90;;;;;;31586944;28;20116;-65
2021/12/15 10:43:08;;;;;;;13.70;10.27;;;22.80;54.20;;;;;;31572139;28;20069;-59
2021/12/15 10:58:37;;;;;;;11.88;10.27;;;22.70;54.50;;;;;;31592770;28;20044;-68
2021/12/15 11:13:39;;;;;;;9.85;8.20;;;23.00;54.60;;;;;;31563397;28;20094;-56
2021/12/15 11:28:45;;;;;;;11.73;8.52;;;23.20;54.40;;;;;;31250639;28;10000549;-57
2021/12/15 11:43:55;;;;;;;25.88;9.52;;;23.40;54.30;;;;;;31569609;28;20041;-52
2021/12/15 11:59:16;;;;;;;13.10;8.70;;;23.00;54.10;;;;;;31553478;28;20037;-53
2021/12/15 12:14:37;;;;;;;11.10;8.35;;;22.80;53.10;;;;;;31588044;28;20067;-64
2021/12/15 12:29:42;;;;;;;11.52;7.72;;;22.60;51.50;;;;;;31624211;28;20143;-55
2021/12/15 12:44:48;;;;;;;7.63;6.18;;;22.70;53.30;;;;;;31573005;28;20132;-54
2021/12/15 12:59:50;;;;;;;6.65;5.65;;;23.10;54.60;;;;;;31566833;28;20045;-58
2021/12/15 13:14:55;;;;;;;7.60;5.43;;;23.30;55.30;;;;;;31529882;28;20914;-62
2021/12/15 13:29:57;;;;;;;15.23;10.25;;;23.20;55.20;;;;;;31579967;28;20083;-62
2021/12/15 13:44:59;;;;;;;47.05;35.25;;;22.30;45.10;;;;;;31602483;28;20044;-58
2021/12/15 14:00:07;;;;;;;24.95;17.17;;;21.50;45.10;;;;;;31627675;28;20092;-58
2021/12/15 14:15:10;;;;;;;26.00;18.42;;;22.40;45.90;;;;;;31339182;28;10000716;-63
2021/12/15 14:30:13;;;;;;;22.15;15.00;;;22.70;44.50;;;;;;31599689;28;20053;-63
2021/12/15 14:45:16;;;;;;;20.33;16.23;;;23.10;46.60;;;;;;31499164;28;20041;-63
2021/12/15 15:00:29;;;;;;;20.23;14.18;;;23.20;48.60;;;;;;31512557;28;20052;-62
2021/12/15 15:15:39;;;;;;;30.55;13.82;;;23.00;49.50;;;;;;31608613;28;20080;-58
2021/12/15 15:30:42;;;;;;;22.93;14.70;;;22.90;50.10;;;;;;31583057;28;20103;-58
2021/12/15 15:45:51;;;;;;;22.20;12.43;;;22.70;51.90;;;;;;31521053;28;20048;-58
2021/12/15 16:00:55;;;;;;;17.40;12.45;;;22.80;51.10;;;;;;31549650;28;20128;-58
2021/12/15 16:16:07;;;;;;;19.27;12.13;;;23.00;51.30;;;;;;31576960;28;20052;-61
2021/12/15 16:31:12;;;;;;;74.47;13.13;;;23.00;51.50;;;;;;31576603;28;20231;-60
2021/12/15 16:46:24;;;;;;;32.83;11.80;;;23.00;53.80;;;;;;31239477;28;10000547;-58
2021/12/15 17:01:36;;;;;;;17.40;9.38;;;22.90;54.00;;;;;;31561711;28;20041;-58
2021/12/15 17:16:47;;;;;;;13.75;9.50;;;22.80;54.60;;;;;;31579265;28;20182;-58
2021/12/15 17:31:55;;;;;;;16.98;10.07;;;22.70;55.50;;;;;;31629457;28;20056;-66
2021/12/15 17:47:04;;;;;;;20.40;8.45;;;22.50;54.80;;;;;;31583547;28;20064;-62
2021/12/15 18:02:06;;;;;;;26.33;8.30;;;22.90;54.60;;;;;;31559485;28;20060;-61
2021/12/15 18:17:10;;;;;;;15.38;8.65;;;23.10;54.00;;;;;;31521474;28;20086;-58
2021/12/15 18:32:14;;;;;;;25.08;10.43;;;23.30;54.30;;;;;;31570485;28;20127;-54
2021/12/15 18:47:17;;;;;;;12.90;7.60;;;23.20;54.60;;;;;;31567420;28;20040;-52
2021/12/15 19:02:22;;;;;;;19.90;10.85;;;23.10;55.20;;;;;;31551226;28;20060;-53
2021/12/15 19:17:26;;;;;;;13.88;7.40;;;22.90;55.40;;;;;;31549348;28;20041;-53
2021/12/15 19:32:29;;;;;;;10.85;6.10;;;22.90;55.40;;;;;;31531788;28;20079;-57
2021/12/15 19:47:32;;;;;;;19.42;5.57;;;23.00;54.40;;;;;;31565076;28;20045;-54
2021/12/15 20:02:37;;;;;;;11.70;4.80;;;23.00;54.50;;;;;;31580915;28;20064;-50
2021/12/15 20:17:40;;;;;;;6.50;4.65;;;22.90;55.20;;;;;;31569164;28;20096;-55
2021/12/15 20:32:44;;;;;;;9.57;6.55;;;23.00;56.50;;;;;;31527582;28;20060;-52
2021/12/15 20:47:47;;;;;;;10.80;5.03;;;23.40;57.00;;;;;;31522014;28;20065;-59
2021/12/15 21:02:50;;;;;;;18.67;12.65;;;23.40;56.60;;;;;;31577917;28;20048;-56
2021/12/15 21:17:52;;;;;;;23.58;12.32;;;23.30;55.50;;;;;;31605645;28;20100;-50
2021/12/15 21:32:55;;;;;;;16.48;11.50;;;23.20;55.70;;;;;;31551351;28;20107;-51
2021/12/15 21:48:00;;;;;;;18.20;11.05;;;23.10;55.50;;;;;;31489782;28;20114;-53
2021/12/15 22:03:03;;;;;;;17.70;11.18;;;23.00;55.60;;;;;;31518310;28;20517;-48
2021/12/15 22:18:08;;;;;;;14.32;10.93;;;22.90;55.80;;;;;;31602041;28;20044;-50
2021/12/15 22:33:16;;;;;;;10.40;8.35;;;23.00;56.10;;;;;;31623390;28;20166;-49
2021/12/15 22:48:18;;;;;;;13.73;10.20;;;23.40;56.10;;;;;;31575873;28;20068;-53
2021/12/15 23:03:22;;;;;;;13.93;10.05;;;23.40;55.40;;;;;;31608187;28;20048;-46
2021/12/15 23:18:25;;;;;;;15.48;10.20;;;23.30;55.40;;;;;;31596951;28;20044;-44
2021/12/15 23:33:28;;;;;;;11.57;9.23;;;23.30;55.60;;;;;;31544302;28;20109;-48
